sensor_id;sensor_type;location;lat;lon;timestamp;P1;durP1;ratioP1;P2;durP2;ratioP2
30010;SDS011;16851;53.564;8.112;2023-02-11T00:00:08;32.27;;;12.80;;
30010;SDS011;16851;53.564;8.112;2023-02-11T00:05:13;33.73;;;13.83;;
30010;SDS011;16851;53.564;8.112;2023-02-11T00:10:19;32.87;;;11.60;;
30010;SDS011;16851;53.564;8.112;2023-02-11T00:15:25;39.07;;;14.20;;
30010;SDS011;16851;53.564;8.112;2023-02-11T00:20:29;40.53;;;12.77;;
30010;SDS011;16851;53.564;8.112;2023-02-11T00:25:37;32.13;;;12.30;;
30010;SDS011;16851;53.564;8.112;2023-02-11T00:30:40;33.03;;;11.37;;
30010;SDS011;16851;53.564;8.112;2023-02-11T00:35:44;33.17;;;13.87;;
30010;SDS011;16851;53.564;8.112;2023-02-11T00:40:50;44.20;;;13.43;;
30010;SDS011;16851;53.564;8.112;2023-02-11T00:45:51;38.27;;;13.63;;
30010;SDS011;16851;53.564;8.112;2023-02-11T00:50:58;34.10;;;12.07;;
30010;SDS011;16851;53.564;8.112;2023-02-11T00:56:00;30.70;;;13.27;;
30010;SDS011;16851;53.564;8.112;2023-02-11T01:01:07;34.23;;;14.03;;
30010;SDS011;16851;53.564;8.112;2023-02-11T01:06:09;41.93;;;14.63;;
30010;SDS011;16851;53.564;8.112;2023-02-11T01:11:16;37.23;;;13.13;;
30010;SDS011;16851;53.564;8.112;2023-02-11T01:16:19;42.83;;;14.10;;
30010;SDS011;16851;53.564;8.112;2023-02-11T01:21:26;33.43;;;12.33;;
30010;SDS011;16851;53.564;8.112;2023-02-11T01:26:30;37.80;;;12.20;;
30010;SDS011;16851;53.564;8.112;2023-02-11T01:31:37;37.83;;;13.33;;
30010;SDS011;16851;53.564;8.112;2023-02-11T01:36:43;41.10;;;13.93;;
30010;SDS011;16851;53.564;8.112;2023-02-11T01:41:50;37.07;;;12.97;;
30010;SDS011;16851;53.564;8.112;2023-02-11T01:46:52;30.60;;;11.70;;
30010;SDS011;16851;53.564;8.112;2023-02-11T01:52:04;38.53;;;12.47;;
30010;SDS011;16851;53.564;8.112;2023-02-11T01:57:13;37.20;;;12.60;;
30010;SDS011;16851;53.564;8.112;2023-02-11T02:02:23;36.13;;;14.17;;
30010;SDS011;16851;53.564;8.112;2023-02-11T02:07:35;38.23;;;12.43;;
30010;SDS011;16851;53.564;8.112;2023-02-11T02:12:49;34.93;;;11.80;;
30010;SDS011;16851;53.564;8.112;2023-02-11T02:38:33;25.07;;;11.37;;
30010;SDS011;16851;53.564;8.112;2023-02-11T02:43:41;39.33;;;13.97;;
30010;SDS011;16851;53.564;8.112;2023-02-11T02:48:53;43.90;;;14.13;;
30010;SDS011;16851;53.564;8.112;2023-02-11T03:10:06;36.27;;;14.17;;
30010;SDS011;16851;53.564;8.112;2023-02-11T03:15:11;37.80;;;14.73;;
30010;SDS011;16851;53.564;8.112;2023-02-11T03:20:16;38.17;;;14.67;;
30010;SDS011;16851;53.564;8.112;2023-02-11T03:25:21;40.20;;;15.87;;
30010;SDS011;16851;53.564;8.112;2023-02-11T03:30:31;39.37;;;13.97;;
30010;SDS011;16851;53.564;8.112;2023-02-11T03:35:41;34.40;;;14.43;;
30010;SDS011;16851;53.564;8.112;2023-02-11T03:40:48;38.50;;;15.30;;
30010;SDS011;16851;53.564;8.112;2023-02-11T03:45:53;43.93;;;17.13;;
30010;SDS011;16851;53.564;8.112;2023-02-11T03:50:58;50.27;;;17.90;;
30010;SDS011;16851;53.564;8.112;2023-02-11T03:56:05;53.67;;;18.30;;
30010;SDS011;16851;53.564;8.112;2023-02-11T04:01:13;47.23;;;18.13;;
30010;SDS011;16851;53.564;8.112;2023-02-11T04:06:17;46.07;;;18.23;;
30010;SDS011;16851;53.564;8.112;2023-02-11T04:11:21;50.53;;;18.87;;
30010;SDS011;16851;53.564;8.112;2023-02-11T04:16:29;54.00;;;19.90;;
30010;SDS011;16851;53.564;8.112;2023-02-11T04:21:31;52.03;;;19.53;;
30010;SDS011;16851;53.564;8.112;2023-02-11T04:26:37;51.53;;;19.77;;
30010;SDS011;16851;53.564;8.112;2023-02-11T04:31:41;50.43;;;21.40;;
30010;SDS011;16851;53.564;8.112;2023-02-11T04:36:46;53.93;;;21.70;;
30010;SDS011;16851;53.564;8.112;2023-02-11T04:41:49;43.60;;;15.73;;
30010;SDS011;16851;53.564;8.112;2023-02-11T04:46:55;53.57;;;21.33;;
30010;SDS011;16851;53.564;8.112;2023-02-11T04:52:02;61.80;;;23.70;;
30010;SDS011;16851;53.564;8.112;2023-02-11T04:57:06;67.80;;;25.00;;
30010;SDS011;16851;53.564;8.112;2023-02-11T05:02:08;64.43;;;25.53;;
30010;SDS011;16851;53.564;8.112;2023-02-11T05:07:12;57.27;;;21.27;;
30010;SDS011;16851;53.564;8.112;2023-02-11T05:12:14;58.57;;;22.50;;
30010;SDS011;16851;53.564;8.112;2023-02-11T05:17:18;66.60;;;27.63;;
30010;SDS011;16851;53.564;8.112;2023-02-11T05:22:25;61.70;;;24.17;;
30010;SDS011;16851;53.564;8.112;2023-02-11T05:27:29;64.30;;;25.83;;
30010;SDS011;16851;53.564;8.112;2023-02-11T05:32:36;62.83;;;25.77;;
30010;SDS011;16851;53.564;8.112;2023-02-11T05:37:43;59.00;;;23.73;;
30010;SDS011;16851;53.564;8.112;2023-02-11T05:42:44;56.73;;;23.30;;
30010;SDS011;16851;53.564;8.112;2023-02-11T05:47:51;55.87;;;25.00;;
30010;SDS011;16851;53.564;8.112;2023-02-11T05:52:55;56.10;;;23.13;;
30010;SDS011;16851;53.564;8.112;2023-02-11T05:57:59;49.83;;;22.43;;
30010;SDS011;16851;53.564;8.112;2023-02-11T06:03:03;56.03;;;21.63;;
30010;SDS011;16851;53.564;8.112;2023-02-11T06:08:05;54.40;;;21.97;;
30010;SDS011;16851;53.564;8.112;2023-02-11T06:13:09;45.87;;;22.53;;
30010;SDS011;16851;53.564;8.112;2023-02-11T06:18:14;53.77;;;23.33;;
30010;SDS011;16851;53.564;8.112;2023-02-11T06:23:15;54.27;;;21.33;;
30010;SDS011;16851;53.564;8.112;2023-02-11T06:28:19;48.60;;;20.37;;
30010;SDS011;16851;53.564;8.112;2023-02-11T06:33:23;50.43;;;20.97;;
30010;SDS011;16851;53.564;8.112;2023-02-11T06:38:27;58.80;;;20.00;;
30010;SDS011;16851;53.564;8.112;2023-02-11T06:43:34;36.63;;;14.83;;
30010;SDS011;16851;53.564;8.112;2023-02-11T06:48:38;53.40;;;19.43;;
30010;SDS011;16851;53.564;8.112;2023-02-11T06:53:41;47.30;;;18.33;;
30010;SDS011;16851;53.564;8.112;2023-02-11T06:58:44;42.70;;;18.07;;
30010;SDS011;16851;53.564;8.112;2023-02-11T07:03:49;43.23;;;16.27;;
30010;SDS011;16851;53.564;8.112;2023-02-11T07:08:53;45.23;;;17.03;;
30010;SDS011;16851;53.564;8.112;2023-02-11T07:14:05;52.70;;;17.53;;
30010;SDS011;16851;53.564;8.112;2023-02-11T07:19:10;34.40;;;14.63;;
30010;SDS011;16851;53.564;8.112;2023-02-11T07:24:14;47.43;;;16.07;;
30010;SDS011;16851;53.564;8.112;2023-02-11T07:29:16;43.17;;;16.63;;
30010;SDS011;16851;53.564;8.112;2023-02-11T07:34:21;50.00;;;17.30;;
30010;SDS011;16851;53.564;8.112;2023-02-11T07:39:25;32.47;;;12.37;;
30010;SDS011;16851;53.564;8.112;2023-02-11T07:44:29;49.33;;;14.03;;
30010;SDS011;16851;53.564;8.112;2023-02-11T07:49:33;39.93;;;12.70;;
30010;SDS011;16851;53.564;8.112;2023-02-11T07:54:35;39.67;;;13.43;;
30010;SDS011;16851;53.564;8.112;2023-02-11T07:59:39;38.03;;;11.57;;
30010;SDS011;16851;53.564;8.112;2023-02-11T08:04:45;32.20;;;11.80;;
30010;SDS011;16851;53.564;8.112;2023-02-11T08:09:47;44.43;;;11.73;;
30010;SDS011;16851;53.564;8.112;2023-02-11T08:14:58;40.20;;;10.97;;
30010;SDS011;16851;53.564;8.112;2023-02-11T08:20:02;41.70;;;11.27;;
30010;SDS011;16851;53.564;8.112;2023-02-11T08:25:08;37.23;;;11.20;;
30010;SDS011;16851;53.564;8.112;2023-02-11T08:30:10;39.03;;;10.33;;
30010;SDS011;16851;53.564;8.112;2023-02-11T08:35:12;31.90;;;8.73;;
30010;SDS011;16851;53.564;8.112;2023-02-11T08:40:16;33.30;;;7.23;;
30010;SDS011;16851;53.564;8.112;2023-02-11T08:45:20;31.17;;;8.00;;
30010;SDS011;16851;53.564;8.112;2023-02-11T08:50:24;29.43;;;7.40;;
30010;SDS011;16851;53.564;8.112;2023-02-11T08:55:28;27.43;;;7.13;;
30010;SDS011;16851;53.564;8.112;2023-02-11T09:00:30;22.47;;;4.83;;
30010;SDS011;16851;53.564;8.112;2023-02-11T09:05:39;28.40;;;6.83;;
30010;SDS011;16851;53.564;8.112;2023-02-11T09:10:58;36.20;;;7.33;;
30010;SDS011;16851;53.564;8.112;2023-02-11T09:16:03;35.93;;;6.77;;
30010;SDS011;16851;53.564;8.112;2023-02-11T09:21:09;40.73;;;6.73;;
30010;SDS011;16851;53.564;8.112;2023-02-11T09:26:14;30.20;;;6.40;;
30010;SDS011;16851;53.564;8.112;2023-02-11T09:31:19;28.67;;;5.50;;
30010;SDS011;16851;53.564;8.112;2023-02-11T09:36:25;34.07;;;5.70;;
30010;SDS011;16851;53.564;8.112;2023-02-11T09:46:57;26.43;;;5.63;;
30010;SDS011;16851;53.564;8.112;2023-02-11T09:52:44;24.93;;;5.77;;
30010;SDS011;16851;53.564;8.112;2023-02-11T09:57:32;32.77;;;5.90;;
30010;SDS011;16851;53.564;8.112;2023-02-11T10:02:45;32.10;;;6.47;;
30010;SDS011;16851;53.564;8.112;2023-02-11T10:08:05;32.50;;;5.60;;
30010;SDS011;16851;53.564;8.112;2023-02-11T10:23:44;31.57;;;5.70;;
30010;SDS011;16851;53.564;8.112;2023-02-11T10:28:51;31.00;;;5.30;;
30010;SDS011;16851;53.564;8.112;2023-02-11T10:33:58;38.47;;;5.23;;
30010;SDS011;16851;53.564;8.112;2023-02-11T10:39:15;32.57;;;5.37;;
30010;SDS011;16851;53.564;8.112;2023-02-11T10:44:36;32.90;;;5.37;;
30010;SDS011;16851;53.564;8.112;2023-02-11T10:49:43;33.17;;;5.03;;
30010;SDS011;16851;53.564;8.112;2023-02-11T11:00:30;30.60;;;5.83;;
30010;SDS011;16851;53.564;8.112;2023-02-11T11:05:44;28.40;;;5.50;;
30010;SDS011;16851;53.564;8.112;2023-02-11T11:11:01;35.63;;;5.13;;
30010;SDS011;16851;53.564;8.112;2023-02-11T11:21:17;31.97;;;5.17;;
30010;SDS011;16851;53.564;8.112;2023-02-11T11:26:41;34.50;;;5.87;;
30010;SDS011;16851;53.564;8.112;2023-02-11T11:31:56;23.63;;;4.70;;
30010;SDS011;16851;53.564;8.112;2023-02-11T11:37:08;36.23;;;5.43;;
30010;SDS011;16851;53.564;8.112;2023-02-11T11:42:30;27.17;;;3.83;;
30010;SDS011;16851;53.564;8.112;2023-02-11T11:52:55;31.83;;;5.23;;
30010;SDS011;16851;53.564;8.112;2023-02-11T11:58:04;27.83;;;3.60;;
30010;SDS011;16851;53.564;8.112;2023-02-11T12:08:49;28.87;;;4.70;;
30010;SDS011;16851;53.564;8.112;2023-02-11T12:25:25;29.27;;;5.00;;
30010;SDS011;16851;53.564;8.112;2023-02-11T12:35:47;32.67;;;4.50;;
30010;SDS011;16851;53.564;8.112;2023-02-11T12:41:14;35.07;;;4.97;;
30010;SDS011;16851;53.564;8.112;2023-02-11T12:46:45;43.93;;;7.07;;
30010;SDS011;16851;53.564;8.112;2023-02-11T12:52:01;54.33;;;5.97;;
30010;SDS011;16851;53.564;8.112;2023-02-11T13:07:34;50.93;;;6.00;;
30010;SDS011;16851;53.564;8.112;2023-02-11T13:12:42;33.90;;;4.80;;
30010;SDS011;16851;53.564;8.112;2023-02-11T13:28:45;35.67;;;5.13;;
30010;SDS011;16851;53.564;8.112;2023-02-11T13:34:24;38.40;;;5.43;;
30010;SDS011;16851;53.564;8.112;2023-02-11T13:44:57;39.90;;;5.60;;
30010;SDS011;16851;53.564;8.112;2023-02-11T13:50:02;43.63;;;5.90;;
30010;SDS011;16851;53.564;8.112;2023-02-11T13:55:08;35.93;;;6.00;;
30010;SDS011;16851;53.564;8.112;2023-02-11T14:05:37;36.60;;;6.23;;
30010;SDS011;16851;53.564;8.112;2023-02-11T14:22:28;43.93;;;7.20;;
30010;SDS011;16851;53.564;8.112;2023-02-11T14:27:34;41.90;;;7.37;;
30010;SDS011;16851;53.564;8.112;2023-02-11T14:43:11;48.17;;;7.20;;
30010;SDS011;16851;53.564;8.112;2023-02-11T14:48:17;59.13;;;10.10;;
30010;SDS011;16851;53.564;8.112;2023-02-11T14:53:21;45.17;;;8.73;;
30010;SDS011;16851;53.564;8.112;2023-02-11T14:58:27;43.93;;;6.70;;
30010;SDS011;16851;53.564;8.112;2023-02-11T15:03:37;48.47;;;7.50;;
30010;SDS011;16851;53.564;8.112;2023-02-11T15:09:05;49.13;;;11.33;;
30010;SDS011;16851;53.564;8.112;2023-02-11T15:14:09;42.67;;;8.93;;
30010;SDS011;16851;53.564;8.112;2023-02-11T15:19:31;44.57;;;7.83;;
30010;SDS011;16851;53.564;8.112;2023-02-11T15:24:37;41.97;;;6.37;;
30010;SDS011;16851;53.564;8.112;2023-02-11T15:29:44;40.27;;;7.77;;
30010;SDS011;16851;53.564;8.112;2023-02-11T15:34:53;48.23;;;7.33;;
30010;SDS011;16851;53.564;8.112;2023-02-11T15:40:07;50.10;;;13.53;;
30010;SDS011;16851;53.564;8.112;2023-02-11T15:50:21;48.13;;;9.13;;
30010;SDS011;16851;53.564;8.112;2023-02-11T15:55:28;47.73;;;7.87;;
30010;SDS011;16851;53.564;8.112;2023-02-11T16:00:34;51.23;;;8.23;;
30010;SDS011;16851;53.564;8.112;2023-02-11T16:05:41;50.33;;;8.77;;
30010;SDS011;16851;53.564;8.112;2023-02-11T16:10:51;53.37;;;9.10;;
30010;SDS011;16851;53.564;8.112;2023-02-11T16:16:00;56.20;;;9.30;;
30010;SDS011;16851;53.564;8.112;2023-02-11T16:21:13;54.47;;;8.33;;
30010;SDS011;16851;53.564;8.112;2023-02-11T16:31:33;42.83;;;9.40;;
30010;SDS011;16851;53.564;8.112;2023-02-11T16:36:39;58.77;;;10.87;;
30010;SDS011;16851;53.564;8.112;2023-02-11T16:41:42;44.93;;;9.00;;
30010;SDS011;16851;53.564;8.112;2023-02-11T16:46:46;48.87;;;9.10;;
30010;SDS011;16851;53.564;8.112;2023-02-11T16:51:52;54.43;;;11.37;;
30010;SDS011;16851;53.564;8.112;2023-02-11T16:56:59;67.67;;;10.10;;
30010;SDS011;16851;53.564;8.112;2023-02-11T17:02:02;54.40;;;10.53;;
30010;SDS011;16851;53.564;8.112;2023-02-11T17:07:04;54.90;;;9.80;;
30010;SDS011;16851;53.564;8.112;2023-02-11T17:12:11;57.80;;;11.33;;
30010;SDS011;16851;53.564;8.112;2023-02-11T17:17:13;75.87;;;13.13;;
30010;SDS011;16851;53.564;8.112;2023-02-11T17:22:22;40.67;;;8.97;;
30010;SDS011;16851;53.564;8.112;2023-02-11T17:27:23;52.83;;;12.40;;
30010;SDS011;16851;53.564;8.112;2023-02-11T17:32:25;53.37;;;12.30;;
30010;SDS011;16851;53.564;8.112;2023-02-11T17:37:30;56.47;;;10.03;;
30010;SDS011;16851;53.564;8.112;2023-02-11T17:42:37;47.57;;;10.97;;
30010;SDS011;16851;53.564;8.112;2023-02-11T17:47:49;57.80;;;11.27;;
30010;SDS011;16851;53.564;8.112;2023-02-11T17:52:52;54.17;;;17.77;;
30010;SDS011;16851;53.564;8.112;2023-02-11T17:57:56;54.83;;;12.07;;
30010;SDS011;16851;53.564;8.112;2023-02-11T18:02:59;58.70;;;11.40;;
30010;SDS011;16851;53.564;8.112;2023-02-11T18:08:05;46.47;;;10.73;;
30010;SDS011;16851;53.564;8.112;2023-02-11T18:13:07;59.17;;;12.30;;
30010;SDS011;16851;53.564;8.112;2023-02-11T18:18:09;51.87;;;12.03;;
30010;SDS011;16851;53.564;8.112;2023-02-11T18:23:14;67.93;;;13.60;;
30010;SDS011;16851;53.564;8.112;2023-02-11T18:28:15;58.57;;;10.23;;
30010;SDS011;16851;53.564;8.112;2023-02-11T18:33:19;52.37;;;11.10;;
30010;SDS011;16851;53.564;8.112;2023-02-11T18:38:23;54.17;;;11.87;;
30010;SDS011;16851;53.564;8.112;2023-02-11T18:43:27;75.57;;;14.77;;
30010;SDS011;16851;53.564;8.112;2023-02-11T18:48:34;58.10;;;16.37;;
30010;SDS011;16851;53.564;8.112;2023-02-11T18:53:41;54.27;;;12.97;;
30010;SDS011;16851;53.564;8.112;2023-02-11T18:58:43;58.10;;;12.53;;
30010;SDS011;16851;53.564;8.112;2023-02-11T19:03:52;63.90;;;13.67;;
30010;SDS011;16851;53.564;8.112;2023-02-11T19:08:55;54.83;;;13.83;;
30010;SDS011;16851;53.564;8.112;2023-02-11T19:14:03;61.63;;;14.57;;
30010;SDS011;16851;53.564;8.112;2023-02-11T19:19:10;77.37;;;15.00;;
30010;SDS011;16851;53.564;8.112;2023-02-11T19:24:18;62.53;;;15.30;;
30010;SDS011;16851;53.564;8.112;2023-02-11T19:29:20;78.60;;;15.97;;
30010;SDS011;16851;53.564;8.112;2023-02-11T19:34:26;69.27;;;15.57;;
30010;SDS011;16851;53.564;8.112;2023-02-11T19:39:31;78.50;;;13.97;;
30010;SDS011;16851;53.564;8.112;2023-02-11T19:44:33;59.40;;;14.67;;
30010;SDS011;16851;53.564;8.112;2023-02-11T19:49:39;65.93;;;15.07;;
30010;SDS011;16851;53.564;8.112;2023-02-11T19:54:44;78.93;;;15.73;;
30010;SDS011;16851;53.564;8.112;2023-02-11T19:59:49;74.13;;;15.60;;
30010;SDS011;16851;53.564;8.112;2023-02-11T20:04:51;100.30;;;19.20;;
30010;SDS011;16851;53.564;8.112;2023-02-11T20:09:52;66.77;;;16.90;;
30010;SDS011;16851;53.564;8.112;2023-02-11T20:15:01;74.70;;;16.70;;
30010;SDS011;16851;53.564;8.112;2023-02-11T20:20:03;78.93;;;17.83;;
30010;SDS011;16851;53.564;8.112;2023-02-11T20:25:08;77.90;;;18.57;;
30010;SDS011;16851;53.564;8.112;2023-02-11T20:30:13;67.23;;;19.07;;
30010;SDS011;16851;53.564;8.112;2023-02-11T20:35:17;81.60;;;20.00;;
30010;SDS011;16851;53.564;8.112;2023-02-11T20:40:19;81.87;;;19.23;;
30010;SDS011;16851;53.564;8.112;2023-02-11T20:45:21;82.00;;;19.93;;
30010;SDS011;16851;53.564;8.112;2023-02-11T20:50:24;69.57;;;19.10;;
30010;SDS011;16851;53.564;8.112;2023-02-11T20:55:29;77.83;;;20.10;;
30010;SDS011;16851;53.564;8.112;2023-02-11T21:00:34;70.23;;;19.37;;
30010;SDS011;16851;53.564;8.112;2023-02-11T21:05:39;74.70;;;20.93;;
30010;SDS011;16851;53.564;8.112;2023-02-11T21:10:44;74.00;;;18.73;;
30010;SDS011;16851;53.564;8.112;2023-02-11T21:15:53;82.13;;;17.73;;
30010;SDS011;16851;53.564;8.112;2023-02-11T21:20:56;83.93;;;21.50;;
30010;SDS011;16851;53.564;8.112;2023-02-11T21:25:58;88.63;;;21.57;;
30010;SDS011;16851;53.564;8.112;2023-02-11T21:31:02;109.80;;;24.77;;
30010;SDS011;16851;53.564;8.112;2023-02-11T21:36:06;90.60;;;23.60;;
30010;SDS011;16851;53.564;8.112;2023-02-11T21:41:13;86.27;;;22.17;;
30010;SDS011;16851;53.564;8.112;2023-02-11T21:46:16;88.63;;;25.17;;
30010;SDS011;16851;53.564;8.112;2023-02-11T21:51:23;93.67;;;25.37;;
30010;SDS011;16851;53.564;8.112;2023-02-11T21:56:30;84.57;;;23.67;;
30010;SDS011;16851;53.564;8.112;2023-02-11T22:01:33;114.63;;;28.93;;
30010;SDS011;16851;53.564;8.112;2023-02-11T22:06:37;106.13;;;27.37;;
30010;SDS011;16851;53.564;8.112;2023-02-11T22:11:43;110.90;;;28.37;;
30010;SDS011;16851;53.564;8.112;2023-02-11T22:16:53;67.97;;;22.93;;
30010;SDS011;16851;53.564;8.112;2023-02-11T22:21:55;107.30;;;26.63;;
30010;SDS011;16851;53.564;8.112;2023-02-11T22:26:57;88.57;;;26.47;;
30010;SDS011;16851;53.564;8.112;2023-02-11T22:31:59;83.17;;;21.97;;
30010;SDS011;16851;53.564;8.112;2023-02-11T22:37:05;76.40;;;22.63;;
30010;SDS011;16851;53.564;8.112;2023-02-11T22:42:08;97.53;;;25.13;;
30010;SDS011;16851;53.564;8.112;2023-02-11T22:47:09;102.43;;;21.43;;
30010;SDS011;16851;53.564;8.112;2023-02-11T22:52:14;93.53;;;22.67;;
30010;SDS011;16851;53.564;8.112;2023-02-11T22:57:19;118.90;;;24.80;;
30010;SDS011;16851;53.564;8.112;2023-02-11T23:02:24;134.67;;;23.70;;
30010;SDS011;16851;53.564;8.112;2023-02-11T23:07:32;126.47;;;27.20;;
30010;SDS011;16851;53.564;8.112;2023-02-11T23:12:43;147.93;;;26.17;;
30010;SDS011;16851;53.564;8.112;2023-02-11T23:17:44;137.80;;;25.27;;
30010;SDS011;16851;53.564;8.112;2023-02-11T23:22:48;120.00;;;25.13;;
30010;SDS011;16851;53.564;8.112;2023-02-11T23:27:54;133.30;;;27.90;;
30010;SDS011;16851;53.564;8.112;2023-02-11T23:32:56;141.47;;;30.33;;
30010;SDS011;16851;53.564;8.112;2023-02-11T23:38:03;95.97;;;26.70;;
30010;SDS011;16851;53.564;8.112;2023-02-11T23:43:05;87.17;;;27.73;;
30010;SDS011;16851;53.564;8.112;2023-02-11T23:48:12;108.20;;;29.20;;
30010;SDS011;16851;53.564;8.112;2023-02-11T23:53:17;150.70;;;33.33;;
30010;SDS011;16851;53.564;8.112;2023-02-11T23:58:20;170.53;;;35.07;;
